Time;durP1;ratioP1;P1;durP2;ratioP2;P2;SDS_P1;SDS_P2;PMS_P1;PMS_P2;Temp;Humidity;BMP_temperature;BMP_pressure;BME280_temperature;BME280_humidity;BME280_pressure;Samples;Min_cycle;Max_cycle;Signal;HPM_P1;HPM_P2
2021/03/06 00:00:12;;;;;;;6.07;3.03;;;1.30;72.60;;;;;;5038632;28;20497;-85
2021/03/06 00:02:38;;;;;;;14.73;3.00;;;1.30;72.90;;;;;;5038996;28;20029;-85
2021/03/06 00:05:05;;;;;;;8.53;2.80;;;1.30;73.80;;;;;;5039220;28;20033;-85
2021/03/06 00:07:31;;;;;;;7.87;3.13;;;1.30;73.50;;;;;;5040128;28;20035;-84
2021/03/06 00:09:57;;;;;;;8.17;3.40;;;1.30;73.70;;;;;;5037587;28;20111;-84
2021/03/06 00:12:22;;;;;;;7.97;3.03;;;1.20;73.30;;;;;;5040668;28;20033;-84
2021/03/06 00:14:48;;;;;;;7.00;3.00;;;1.20;73.30;;;;;;5041453;28;20055;-86
2021/03/06 00:17:13;;;;;;;7.73;3.30;;;1.10;74.00;;;;;;5037024;28;20029;-86
2021/03/06 00:19:39;;;;;;;7.73;3.20;;;1.10;74.00;;;;;;5035663;28;20029;-86
2021/03/06 00:22:05;;;;;;;9.30;3.37;;;1.00;74.50;;;;;;5035548;28;20034;-85
2021/03/06 00:24:31;;;;;;;8.30;3.00;;;1.00;74.20;;;;;;5036989;28;20513;-86
2021/03/06 00:26:57;;;;;;;8.70;3.47;;;1.10;74.20;;;;;;5035948;28;20028;-86
2021/03/06 00:29:23;;;;;;;8.30;3.07;;;1.00;74.50;;;;;;5037011;28;20026;-85
2021/03/06 00:31:48;;;;;;;8.27;3.20;;;1.10;74.90;;;;;;5036356;28;20075;-86
2021/03/06 00:34:14;;;;;;;8.43;3.20;;;1.00;75.30;;;;;;5035267;28;20076;-86
2021/03/06 00:36:40;;;;;;;6.50;3.17;;;1.00;75.10;;;;;;5036980;28;20029;-86
2021/03/06 00:39:06;;;;;;;6.80;3.27;;;1.00;75.00;;;;;;5036595;28;20056;-86
2021/03/06 00:41:32;;;;;;;7.77;3.90;;;1.00;75.40;;;;;;5036643;28;20034;-86
2021/03/06 00:43:59;;;;;;;6.63;3.20;;;1.00;75.10;;;;;;5036946;28;20033;-85
2021/03/06 00:46:25;;;;;;;9.43;3.10;;;1.00;75.20;;;;;;5036946;28;20033;-86
2021/03/06 00:48:50;;;;;;;9.63;3.27;;;1.00;75.50;;;;;;5036660;28;20445;-86
2021/03/06 00:51:16;;;;;;;6.20;3.20;;;0.90;75.50;;;;;;5035836;28;20029;-86
2021/03/06 00:53:42;;;;;;;7.03;3.53;;;1.00;75.70;;;;;;5037010;28;20033;-86
2021/03/06 00:56:07;;;;;;;10.03;3.43;;;1.00;75.80;;;;;;5037390;28;20025;-85
2021/03/06 00:58:33;;;;;;;8.40;3.00;;;1.10;75.50;;;;;;5036013;28;20205;-86
2021/03/06 01:00:59;;;;;;;8.83;3.80;;;1.00;75.30;;;;;;5036606;28;20057;-86
2021/03/06 01:03:25;;;;;;;7.67;3.20;;;1.00;76.10;;;;;;5036771;28;20310;-86
2021/03/06 01:05:51;;;;;;;7.73;3.47;;;0.90;76.30;;;;;;5037241;28;20072;-86
2021/03/06 01:08:17;;;;;;;6.27;3.07;;;0.90;76.10;;;;;;5037386;28;20033;-86
2021/03/06 01:10:44;;;;;;;5.63;2.90;;;1.00;76.30;;;;;;5036636;28;20064;-85
2021/03/06 01:13:11;;;;;;;8.20;3.63;;;1.00;76.30;;;;;;5036100;28;20028;-86
2021/03/06 01:15:38;;;;;;;7.80;3.70;;;1.00;76.40;;;;;;5037304;28;20475;-86
2021/03/06 01:18:05;;;;;;;8.23;3.53;;;1.00;76.60;;;;;;5037669;28;20119;-86
2021/03/06 01:20:31;;;;;;;7.37;3.83;;;1.10;76.70;;;;;;5036082;28;20030;-86
2021/03/06 01:22:57;;;;;;;9.60;3.77;;;1.10;76.80;;;;;;5037439;28;20030;-86
2021/03/06 01:25:22;;;;;;;8.53;3.60;;;1.10;76.80;;;;;;5035254;28;20032;-86
2021/03/06 01:27:48;;;;;;;8.53;4.00;;;1.10;76.70;;;;;;5035526;28;20417;-86
2021/03/06 01:30:15;;;;;;;8.70;4.10;;;1.10;77.30;;;;;;5036251;28;20101;-86
2021/03/06 01:32:40;;;;;;;9.27;3.93;;;1.00;77.40;;;;;;5035637;28;20022;-86
2021/03/06 01:35:11;;;;;;;9.27;3.97;;;1.00;77.70;;;;;;5044581;28;20132;-86
2021/03/06 01:37:38;;;;;;;8.33;4.20;;;1.10;78.60;;;;;;5046350;28;20025;-85
2021/03/06 01:40:12;;;;;;;12.93;4.60;;;1.00;78.50;;;;;;5046108;28;20513;-86
2021/03/06 01:42:39;;;;;;;9.80;4.93;;;1.10;79.10;;;;;;5044508;28;20544;-86
2021/03/06 01:45:06;;;;;;;15.00;5.70;;;1.10;79.40;;;;;;5046843;28;20048;-86
2021/03/06 01:47:33;;;;;;;10.30;5.67;;;1.10;78.90;;;;;;5046217;28;20193;-85
2021/03/06 01:49:59;;;;;;;11.70;5.93;;;1.20;79.20;;;;;;5047278;28;20048;-85
2021/03/06 01:52:25;;;;;;;14.73;6.37;;;1.20;79.70;;;;;;5045866;28;20081;-86
2021/03/06 01:54:54;;;;;;;14.47;5.93;;;1.20;79.70;;;;;;5046281;28;20026;-85
2021/03/06 01:57:19;;;;;;;12.53;6.53;;;1.20;79.40;;;;;;5034511;28;20025;-85
2021/03/06 01:59:45;;;;;;;13.27;6.43;;;1.30;79.60;;;;;;5031564;28;20390;-85
2021/03/06 02:02:12;;;;;;;14.63;6.57;;;1.20;79.80;;;;;;5032465;28;20033;-85
2021/03/06 02:04:38;;;;;;;13.60;6.50;;;1.20;79.90;;;;;;5032954;28;20029;-85
2021/03/06 02:07:04;;;;;;;12.40;5.70;;;1.10;80.80;;;;;;5033178;28;20087;-84
2021/03/06 02:09:30;;;;;;;11.03;5.77;;;1.10;80.50;;;;;;5032228;28;20024;-85
2021/03/06 02:12:14;;;;;;;14.37;6.17;;;1.00;81.20;;;;;;5032669;28;20049;-85
2021/03/06 02:14:46;;;;;;;12.40;5.57;;;1.00;80.40;;;;;;5031383;28;20064;-85
2021/03/06 02:17:33;;;;;;;10.73;5.30;;;1.10;80.20;;;;;;5031402;28;20032;-85
2021/03/06 02:20:22;;;;;;;12.40;5.40;;;1.00;80.40;;;;;;5031322;28;20394;-85
2021/03/06 02:22:54;;;;;;;11.73;5.50;;;0.90;80.50;;;;;;5031326;28;20076;-85
2021/03/06 02:25:44;;;;;;;12.00;5.07;;;0.80;80.40;;;;;;5031331;28;20067;-85
2021/03/06 02:28:47;;;;;;;10.67;4.87;;;0.70;80.30;;;;;;5032727;28;20385;-85
2021/03/06 02:31:15;;;;;;;10.70;5.07;;;0.70;81.10;;;;;;5032081;28;20501;-85
2021/03/06 02:33:44;;;;;;;11.87;5.30;;;0.70;81.70;;;;;;5032749;28;20033;-85
2021/03/06 02:36:15;;;;;;;10.90;4.65;;;0.60;82.30;;;;;;5031317;28;20390;-85
2021/03/06 02:38:42;;;;;;;10.43;5.40;;;0.70;81.50;;;;;;5032632;28;20030;-85
2021/03/06 02:41:10;;;;;;;9.00;4.83;;;0.60;81.40;;;;;;5032012;28;20040;-85
2021/03/06 02:43:36;;;;;;;8.32;4.60;;;0.60;81.20;;;;;;5033008;28;20025;-85
2021/03/06 02:46:07;;;;;;;9.57;5.00;;;0.60;81.10;;;;;;5031217;28;20099;-85
2021/03/06 02:48:34;;;;;;;12.13;5.20;;;0.60;81.30;;;;;;5032651;28;20029;-85
2021/03/06 02:51:01;;;;;;;11.03;4.87;;;0.60;81.60;;;;;;5031923;28;20137;-85
2021/03/06 02:53:27;;;;;;;11.17;5.23;;;0.60;81.70;;;;;;5031030;28;20025;-85
2021/03/06 02:55:52;;;;;;;13.20;4.73;;;0.50;82.30;;;;;;5032337;28;20454;-85
2021/03/06 02:58:37;;;;;;;10.00;4.30;;;0.60;81.60;;;;;;5032420;28;20029;-85
2021/03/06 03:01:12;;;;;;;10.10;4.40;;;0.60;81.60;;;;;;5030378;28;20025;-85
2021/03/06 03:04:00;;;;;;;8.30;4.47;;;0.50;81.80;;;;;;5032415;28;20056;-85
2021/03/06 03:06:37;;;;;;;13.07;4.77;;;0.50;82.10;;;;;;5030857;28;20104;-85
2021/03/06 03:09:33;;;;;;;10.70;5.57;;;0.40;82.50;;;;;;5030580;28;20024;-85
2021/03/06 03:12:23;;;;;;;11.97;5.23;;;0.50;82.60;;;;;;5032380;28;20033;-85
2021/03/06 03:15:16;;;;;;;11.73;5.43;;;0.50;82.50;;;;;;5030856;28;20033;-85
2021/03/06 03:17:45;;;;;;;13.23;4.77;;;0.40;82.40;;;;;;5032115;28;20026;-85
2021/03/06 03:20:30;;;;;;;11.60;4.83;;;0.40;83.50;;;;;;5031724;28;20100;-85
2021/03/06 03:22:59;;;;;;;10.87;5.13;;;0.30;83.20;;;;;;5031671;28;20187;-85
2021/03/06 03:25:27;;;;;;;;;;;0.40;82.90;;;;;;5032397;28;20055;-85
2021/03/06 03:27:54;;;;;;;15.90;5.43;;;0.50;82.50;;;;;;5031835;28;19955;-85
2021/03/06 03:30:21;;;;;;;11.50;5.30;;;0.50;82.40;;;;;;5030014;28;20051;-85
2021/03/06 03:32:50;;;;;;;10.97;5.10;;;0.50;82.60;;;;;;5031824;28;20013;-85
2021/03/06 03:35:18;;;;;;;10.87;5.63;;;0.40;82.90;;;;;;5031514;28;20025;-85
2021/03/06 03:37:46;;;;;;;12.03;5.80;;;0.30;82.70;;;;;;5031609;28;20033;-85
2021/03/06 03:40:14;;;;;;;15.00;5.97;;;0.30;82.80;;;;;;5029816;28;20029;-85
2021/03/06 03:42:41;;;;;;;11.70;5.90;;;0.20;82.90;;;;;;5030486;28;20120;-85
2021/03/06 03:45:09;;;;;;;10.73;5.57;;;0.20;83.30;;;;;;5035263;28;20053;-85
2021/03/06 03:47:40;;;;;;;13.83;6.07;;;0.30;83.60;;;;;;5033913;28;20021;-85
2021/03/06 03:50:09;;;;;;;13.27;6.10;;;0.30;83.30;;;;;;5033323;28;20390;-85
2021/03/06 03:52:41;;;;;;;11.50;5.53;;;0.40;82.70;;;;;;5035186;28;20032;-85
2021/03/06 03:55:07;;;;;;;12.23;5.47;;;0.30;82.60;;;;;;5035366;28;20293;-85
2021/03/06 03:57:34;;;;;;;11.90;6.27;;;0.40;82.50;;;;;;5033726;28;20061;-85
2021/03/06 04:00:01;;;;;;;13.43;6.50;;;0.40;82.60;;;;;;5033423;28;20128;-85
2021/03/06 04:02:28;;;;;;;13.87;5.37;;;0.40;82.50;;;;;;5033955;28;20393;-85
2021/03/06 04:04:54;;;;;;;11.50;5.60;;;0.40;82.30;;;;;;5033168;28;20124;-85
2021/03/06 04:07:20;;;;;;;13.03;5.73;;;0.40;82.10;;;;;;5035066;28;20068;-85
2021/03/06 04:09:46;;;;;;;12.70;5.90;;;0.40;82.30;;;;;;5033172;28;20057;-85
2021/03/06 04:12:11;;;;;;;11.07;5.63;;;0.40;83.30;;;;;;5034816;28;20034;-85
2021/03/06 04:14:37;;;;;;;10.37;5.40;;;0.40;82.90;;;;;;5034567;28;20029;-85
2021/03/06 04:17:03;;;;;;;12.47;5.70;;;0.40;82.90;;;;;;5033354;28;20069;-85
2021/03/06 04:19:28;;;;;;;13.47;5.80;;;0.30;83.20;;;;;;5034121;28;20064;-85
2021/03/06 04:21:54;;;;;;;14.63;5.80;;;0.30;83.80;;;;;;5033683;28;20064;-85
2021/03/06 04:24:20;;;;;;;13.17;6.27;;;0.30;83.50;;;;;;5033826;28;20030;-85
2021/03/06 04:26:46;;;;;;;12.97;5.73;;;0.20;83.70;;;;;;5035334;28;20029;-85
2021/03/06 04:29:11;;;;;;;12.23;5.70;;;0.30;84.00;;;;;;5033300;28;20029;-85
2021/03/06 04:31:37;;;;;;;13.50;6.00;;;0.30;83.70;;;;;;5033577;28;20032;-85
2021/03/06 04:34:03;;;;;;;13.37;5.80;;;0.20;83.70;;;;;;5034906;28;20041;-85
2021/03/06 04:36:28;;;;;;;11.07;5.70;;;0.30;83.70;;;;;;5034713;28;20029;-85
2021/03/06 04:38:54;;;;;;;13.60;6.37;;;0.20;84.70;;;;;;5034322;28;20053;-85
2021/03/06 04:41:19;;;;;;;13.03;6.00;;;0.20;84.40;;;;;;5034877;28;20403;-85
2021/03/06 04:43:45;;;;;;;11.80;5.53;;;0.20;84.10;;;;;;5034527;28;20040;-85
2021/03/06 04:46:11;;;;;;;14.30;6.63;;;0.20;84.20;;;;;;5034632;28;20033;-85
2021/03/06 04:48:36;;;;;;;13.40;5.57;;;0.20;84.30;;;;;;5033388;28;20048;-85
2021/03/06 04:51:02;;;;;;;14.07;6.50;;;0.10;84.30;;;;;;5034280;28;20390;-85
2021/03/06 04:53:28;;;;;;;17.13;6.13;;;0.20;84.10;;;;;;5034461;28;20080;-85
2021/03/06 04:55:54;;;;;;;13.03;6.43;;;0.30;83.90;;;;;;5034362;28;20053;-85
2021/03/06 04:58:19;;;;;;;11.87;6.03;;;0.20;84.00;;;;;;5034668;28;20033;-85
2021/03/06 05:00:45;;;;;;;14.87;6.40;;;0.20;84.10;;;;;;5034080;28;20026;-85
2021/03/06 05:03:11;;;;;;;16.20;6.90;;;0.10;84.00;;;;;;5034468;28;20116;-86
2021/03/06 05:05:36;;;;;;;11.67;6.30;;;0.10;84.60;;;;;;5033472;28;20064;-85
2021/03/06 05:08:02;;;;;;;11.83;6.20;;;0.10;84.70;;;;;;5034172;28;20106;-85
2021/03/06 05:10:28;;;;;;;13.20;6.03;;;0.00;84.90;;;;;;5032616;28;20021;-85
2021/03/06 05:12:53;;;;;;;12.27;5.90;;;0.10;84.90;;;;;;5033113;28;20466;-85
2021/03/06 05:15:19;;;;;;;15.87;6.37;;;0.00;85.30;;;;;;5033111;28;20120;-85
2021/03/06 05:17:45;;;;;;;14.77;6.03;;;0.00;85.00;;;;;;5034273;28;20093;-85
2021/03/06 05:20:11;;;;;;;13.47;6.30;;;0.00;85.20;;;;;;5033821;28;20487;-85
2021/03/06 05:22:36;;;;;;;13.07;6.07;;;0.00;85.50;;;;;;5034263;28;20025;-85
2021/03/06 05:25:03;;;;;;;11.43;5.73;;;-0.10;85.70;;;;;;5033863;28;20501;-85
2021/03/06 05:27:28;;;;;;;15.60;6.73;;;0.00;86.00;;;;;;5034074;28;20086;-85
2021/03/06 05:29:54;;;;;;;12.73;6.27;;;-0.10;85.70;;;;;;5032240;28;20541;-85
2021/03/06 05:32:20;;;;;;;12.03;6.67;;;-0.10;86.10;;;;;;5034077;28;20025;-85
2021/03/06 05:34:45;;;;;;;15.90;6.60;;;0.00;86.20;;;;;;5034057;28;20021;-86
2021/03/06 05:37:11;;;;;;;14.07;6.50;;;-0.10;87.00;;;;;;5034362;28;20029;-85
2021/03/06 05:39:36;;;;;;;12.83;5.97;;;-0.10;86.10;;;;;;5033436;28;20061;-84
2021/03/06 05:42:04;;;;;;;14.00;6.20;;;-0.20;86.90;;;;;;5033532;28;20037;-84
2021/03/06 05:44:33;;;;;;;13.93;6.07;;;-0.10;86.10;;;;;;5032240;28;20118;-85
2021/03/06 05:46:59;;;;;;;15.70;6.95;;;0.00;85.90;;;;;;5033913;28;20029;-86
2021/03/06 05:49:24;;;;;;;14.37;6.83;;;0.00;85.50;;;;;;5031907;28;20030;-85
2021/03/06 05:51:51;;;;;;;12.93;6.27;;;0.00;85.60;;;;;;5033503;28;20028;-85
2021/03/06 05:54:18;;;;;;;12.87;6.17;;;0.00;86.30;;;;;;5033377;28;20063;-85
2021/03/06 05:56:44;;;;;;;10.17;5.77;;;0.00;86.40;;;;;;5033159;28;20405;-85
2021/03/06 05:59:12;;;;;;;11.10;6.30;;;-0.10;85.70;;;;;;5031415;28;20025;-86
2021/03/06 06:01:39;;;;;;;13.13;6.03;;;-0.10;86.60;;;;;;5032077;28;20120;-85
2021/03/06 06:04:07;;;;;;;15.90;7.03;;;0.00;86.10;;;;;;5032918;28;20026;-85
2021/03/06 06:06:35;;;;;;;10.23;5.63;;;-0.10;86.20;;;;;;5032425;28;20264;-85
2021/03/06 06:09:02;;;;;;;14.00;6.13;;;-0.10;86.00;;;;;;5031280;28;20029;-85
2021/03/06 06:11:28;;;;;;;14.43;6.03;;;0.00;86.10;;;;;;5032969;28;20263;-85
2021/03/06 06:13:55;;;;;;;14.07;5.90;;;-0.10;86.20;;;;;;5033091;28;20025;-85
2021/03/06 06:16:21;;;;;;;14.63;5.40;;;-0.20;86.20;;;;;;5034606;28;20072;-84
2021/03/06 06:18:49;;;;;;;15.37;6.07;;;-0.20;86.80;;;;;;5033588;28;20087;-84
2021/03/06 06:21:41;;;;;;;12.67;5.47;;;-0.30;86.70;;;;;;5032098;28;20371;-84
2021/03/06 06:24:10;;;;;;;16.93;6.37;;;-0.30;86.60;;;;;;5033061;28;20684;-87
2021/03/06 06:26:37;;;;;;;12.10;5.57;;;-0.30;86.90;;;;;;5031989;28;20261;-84
2021/03/06 06:29:03;;;;;;;12.00;5.97;;;-0.40;86.80;;;;;;5031299;28;20264;-83
2021/03/06 06:31:29;;;;;;;11.33;5.30;;;-0.40;86.60;;;;;;5033454;28;20314;-84
2021/03/06 06:33:55;;;;;;;13.60;5.30;;;-0.40;87.00;;;;;;5033591;28;20664;-84
2021/03/06 06:36:38;;;;;;;11.53;4.93;;;-0.40;87.30;;;;;;5033352;28;20037;-85
2021/03/06 06:39:06;;;;;;;9.27;5.07;;;-0.40;87.10;;;;;;5033672;28;20295;-86
2021/03/06 06:41:49;;;;;;;13.33;5.63;;;-0.40;86.90;;;;;;5032192;28;20288;-84
2021/03/06 06:44:15;;;;;;;11.20;5.30;;;-0.30;87.00;;;;;;5032514;28;20284;-85
2021/03/06 06:46:41;;;;;;;14.20;5.40;;;-0.30;87.00;;;;;;5032398;28;20029;-86
2021/03/06 06:49:06;;;;;;;11.40;5.20;;;-0.20;86.70;;;;;;5031487;28;20021;-84
2021/03/06 06:51:32;;;;;;;7.97;4.60;;;-0.10;86.40;;;;;;5033859;28;20029;-85
2021/03/06 06:54:13;;;;;;;10.27;4.67;;;-0.10;86.90;;;;;;5032216;28;20036;-83
2021/03/06 06:56:39;;;;;;;12.90;4.80;;;-0.10;86.40;;;;;;5032318;28;20025;-85
2021/03/06 06:59:09;;;;;;;10.23;5.47;;;-0.10;86.70;;;;;;5031293;28;20272;-85
2021/03/06 07:01:36;;;;;;;8.77;4.70;;;-0.10;86.70;;;;;;5034084;28;20417;-86
2021/03/06 07:04:02;;;;;;;12.13;4.87;;;0.00;86.50;;;;;;5032769;28;20045;-86
2021/03/06 07:06:28;;;;;;;13.03;5.50;;;0.00;86.30;;;;;;5033182;28;20030;-86
2021/03/06 07:09:07;;;;;;;12.70;4.97;;;0.10;86.20;;;;;;5032620;28;20485;-83
2021/03/06 07:11:33;;;;;;;;;;;0.20;86.10;;;;;;5033550;28;20080;-86
2021/03/06 07:13:59;;;;;;;12.23;5.60;;;0.20;85.40;;;;;;5033495;28;19905;-87
2021/03/06 07:16:55;;;;;;;15.77;5.87;;;0.20;86.50;;;;;;5032536;28;20033;-87
2021/03/06 07:19:21;;;;;;;13.30;7.00;;;0.20;86.00;;;;;;5037501;28;20335;-86
2021/03/06 07:21:51;;;;;;;15.40;6.73;;;0.30;86.30;;;;;;5038746;28;20061;-86
2021/03/06 07:24:17;;;;;;;13.15;6.60;;;0.40;86.20;;;;;;5038223;28;20498;-86
2021/03/06 07:26:43;;;;;;;18.00;7.07;;;0.50;86.00;;;;;;5037702;28;20057;-87
2021/03/06 07:29:09;;;;;;;15.23;7.43;;;0.70;85.30;;;;;;5039485;28;20029;-86
2021/03/06 07:31:38;;;;;;;12.13;6.60;;;0.80;84.50;;;;;;5035380;28;20513;-86
2021/03/06 07:34:07;;;;;;;13.85;6.65;;;0.80;84.50;;;;;;5034921;28;20586;-84
2021/03/06 07:36:36;;;;;;;14.25;6.65;;;0.80;84.50;;;;;;5034915;28;20140;-84
2021/03/06 07:39:04;;;;;;;15.55;6.30;;;0.80;84.80;;;;;;5034326;28;20029;-85
2021/03/06 07:41:34;;;;;;;10.57;5.67;;;0.90;85.30;;;;;;5034612;28;20517;-84
2021/03/06 07:44:00;;;;;;;17.17;6.47;;;0.90;85.00;;;;;;5036114;28;20052;-85
2021/03/06 07:46:27;;;;;;;16.93;6.77;;;0.90;84.90;;;;;;5036009;28;20080;-86
2021/03/06 07:48:56;;;;;;;15.53;7.20;;;1.00;84.80;;;;;;5034373;28;20164;-84
2021/03/06 07:51:22;;;;;;;15.70;6.70;;;1.00;84.30;;;;;;5034835;28;20482;-84
2021/03/06 07:53:49;;;;;;;13.80;6.77;;;1.10;84.00;;;;;;5036007;28;20510;-85
2021/03/06 07:56:15;;;;;;;12.07;6.47;;;1.10;84.00;;;;;;5034107;28;20110;-84
2021/03/06 07:58:47;;;;;;;11.50;6.57;;;1.20;83.70;;;;;;5034555;28;20106;-85
2021/03/06 08:01:28;;;;;;;12.00;6.53;;;1.40;82.50;;;;;;5034114;28;20501;-84
2021/03/06 08:03:53;;;;;;;13.27;6.70;;;1.40;81.70;;;;;;5035710;28;20025;-87
2021/03/06 08:06:30;;;;;;;14.93;6.77;;;1.50;82.10;;;;;;5034433;28;20033;-85
2021/03/06 08:09:07;;;;;;;12.90;7.27;;;1.60;81.20;;;;;;5035494;28;20021;-84
2021/03/06 08:11:32;;;;;;;17.07;6.40;;;1.70;80.00;;;;;;5033582;28;20032;-84
2021/03/06 08:14:00;;;;;;;18.70;10.60;;;1.80;79.70;;;;;;5034337;28;20089;-85
2021/03/06 08:16:29;;;;;;;13.70;7.10;;;1.90;79.30;;;;;;5035458;28;20040;-83
2021/03/06 08:19:11;;;;;;;13.05;6.93;;;1.90;79.20;;;;;;5033600;28;20025;-86
2021/03/06 08:21:42;;;;;;;16.40;7.00;;;2.00;78.00;;;;;;5034444;28;20059;-83
2021/03/06 08:24:21;;;;;;;12.13;6.43;;;2.10;78.20;;;;;;5035625;28;20033;-85
2021/03/06 08:27:02;;;;;;;15.05;6.50;;;2.10;78.20;;;;;;5034023;28;20017;-85
2021/03/06 08:29:28;;;;;;;15.17;7.37;;;2.20;78.30;;;;;;5034159;28;20478;-85
2021/03/06 08:32:03;;;;;;;15.03;6.47;;;2.30;78.30;;;;;;5034016;28;20036;-83
2021/03/06 08:34:47;;;;;;;17.60;6.63;;;2.30;78.40;;;;;;5034970;28;20044;-84
2021/03/06 08:37:22;;;;;;;14.23;7.00;;;2.40;78.10;;;;;;5035563;28;20026;-85
2021/03/06 08:39:50;;;;;;;16.00;8.20;;;2.40;78.30;;;;;;5035314;28;20513;-84
2021/03/06 08:42:22;;;;;;;13.80;7.67;;;2.50;78.40;;;;;;5034472;28;20025;-85
2021/03/06 08:44:48;;;;;;;17.10;8.17;;;2.50;78.30;;;;;;5034319;28;20406;-85
2021/03/06 08:47:52;;;;;;;17.33;8.23;;;2.50;78.50;;;;;;5034392;28;20108;-85
2021/03/06 08:50:20;;;;;;;17.27;8.07;;;2.60;78.60;;;;;;5034911;28;20046;-84
2021/03/06 08:53:03;;;;;;;17.47;8.03;;;2.50;78.30;;;;;;5035787;28;20048;-85
2021/03/06 08:55:32;;;;;;;14.03;7.37;;;2.60;78.30;;;;;;5034414;28;20116;-85
2021/03/06 08:58:06;;;;;;;20.50;8.00;;;2.70;78.10;;;;;;5035697;28;20032;-86
2021/03/06 09:00:36;;;;;;;15.27;7.43;;;2.70;78.10;;;;;;5035102;28;20025;-86
2021/03/06 09:03:19;;;;;;;15.33;7.20;;;2.70;77.50;;;;;;5035776;28;20029;-85
2021/03/06 09:05:53;;;;;;;13.93;6.73;;;2.70;77.60;;;;;;5036056;28;20508;-84
2021/03/06 09:08:20;;;;;;;16.03;7.17;;;2.80;77.80;;;;;;5035300;28;20045;-85
2021/03/06 09:10:46;;;;;;;12.40;6.37;;;2.80;78.10;;;;;;5036181;28;20421;-85
2021/03/06 09:13:21;;;;;;;15.47;6.47;;;2.90;78.30;;;;;;5034762;28;20029;-84
2021/03/06 09:15:53;;;;;;;13.77;6.03;;;3.00;78.10;;;;;;5034148;28;20088;-84
2021/03/06 09:18:21;;;;;;;13.90;6.00;;;3.00;77.60;;;;;;5035771;28;20057;-85
2021/03/06 09:20:55;;;;;;;16.93;5.83;;;3.00;78.20;;;;;;5034681;28;20041;-84
2021/03/06 09:23:35;;;;;;;12.17;5.47;;;3.10;77.80;;;;;;5038473;28;20502;-85
2021/03/06 09:26:13;;;;;;;11.88;5.25;;;3.10;77.80;;;;;;5032131;28;20022;-83
2021/03/06 09:28:39;;;;;;;12.03;5.27;;;3.20;78.00;;;;;;5037802;28;20024;-85
2021/03/06 09:31:14;;;;;;;13.83;5.30;;;3.30;78.00;;;;;;5035972;28;20116;-85
2021/03/06 09:33:40;;;;;;;13.30;4.97;;;3.30;78.20;;;;;;5036154;28;20083;-85
2021/03/06 09:36:10;;;;;;;12.70;4.87;;;3.30;78.30;;;;;;5037019;28;20108;-85
2021/03/06 09:38:49;;;;;;;9.30;4.57;;;3.40;78.50;;;;;;5036434;28;20032;-86
2021/03/06 09:41:17;;;;;;;10.77;4.30;;;3.40;78.70;;;;;;5035677;28;20112;-85
2021/03/06 09:43:49;;;;;;;8.83;4.33;;;3.40;78.60;;;;;;5036190;28;20033;-84
2021/03/06 09:46:25;;;;;;;11.10;4.63;;;3.50;78.30;;;;;;5037856;28;20051;-84
2021/03/06 09:49:06;;;;;;;9.23;3.70;;;3.50;78.20;;;;;;5038214;28;20021;-84
2021/03/06 09:51:44;;;;;;;8.00;3.50;;;3.50;77.50;;;;;;5038418;28;20017;-85
2021/03/06 09:54:12;;;;;;;13.50;4.07;;;3.60;78.00;;;;;;5036428;28;20063;-84
2021/03/06 09:56:55;;;;;;;9.33;3.60;;;3.60;77.80;;;;;;5036673;28;20075;-84
2021/03/06 09:59:22;;;;;;;12.50;4.20;;;3.60;77.30;;;;;;5038441;28;20021;-84
2021/03/06 10:01:48;;;;;;;10.40;3.90;;;3.70;77.70;;;;;;5033520;28;20076;-85
2021/03/06 10:04:24;;;;;;;8.73;3.80;;;3.70;76.80;;;;;;5034991;28;20033;-84
2021/03/06 10:06:52;;;;;;;9.23;4.20;;;3.70;76.70;;;;;;5033710;28;20419;-84
2021/03/06 10:09:20;;;;;;;11.07;5.00;;;3.70;76.80;;;;;;5033070;28;20402;-86
2021/03/06 10:11:52;;;;;;;13.33;4.47;;;3.80;77.10;;;;;;5033135;28;20480;-85
2021/03/06 10:14:21;;;;;;;11.03;4.10;;;3.80;76.60;;;;;;5033104;28;20430;-84
2021/03/06 10:16:51;;;;;;;13.25;4.40;;;3.80;76.20;;;;;;5033920;28;20041;-84
2021/03/06 10:19:19;;;;;;;7.93;3.60;;;3.90;76.00;;;;;;5033177;28;20032;-85
2021/03/06 10:21:58;;;;;;;12.77;4.10;;;3.90;76.20;;;;;;5033243;28;20173;-84
2021/03/06 10:24:24;;;;;;;10.02;3.95;;;3.90;76.20;;;;;;5031305;28;20490;-85
2021/03/06 10:26:56;;;;;;;11.47;3.43;;;4.00;76.30;;;;;;5032947;28;20075;-85
2021/03/06 10:29:24;;;;;;;10.50;3.67;;;4.00;75.50;;;;;;5032747;28;20028;-83
2021/03/06 10:32:16;;;;;;;8.87;3.23;;;4.00;75.50;;;;;;5032961;28;20065;-85
2021/03/06 10:34:44;;;;;;;12.83;3.20;;;4.00;75.30;;;;;;5030727;28;20037;-84
2021/03/06 10:37:16;;;;;;;9.43;3.23;;;4.10;75.50;;;;;;5033215;28;20088;-85
2021/03/06 10:39:56;;;;;;;7.07;3.17;;;4.10;75.50;;;;;;5031169;28;20398;-86
2021/03/06 10:42:24;;;;;;;10.53;3.47;;;4.10;75.20;;;;;;5032781;28;20056;-84
2021/03/06 10:44:50;;;;;;;9.13;3.30;;;4.10;74.90;;;;;;5031355;28;20056;-84
2021/03/06 10:47:16;;;;;;;7.90;3.10;;;4.20;74.10;;;;;;5032933;28;20022;-85
2021/03/06 10:49:44;;;;;;;7.00;2.60;;;4.10;73.70;;;;;;5032107;28;20029;-85
2021/03/06 10:52:27;;;;;;;7.87;2.80;;;4.20;73.70;;;;;;5031075;28;20025;-84
2021/03/06 10:54:55;;;;;;;9.87;3.30;;;4.20;73.40;;;;;;5031472;28;20036;-85
2021/03/06 10:57:21;;;;;;;6.97;2.93;;;4.20;72.90;;;;;;5033940;28;20029;-84
2021/03/06 10:59:48;;;;;;;9.00;3.40;;;4.30;72.40;;;;;;5032506;28;20037;-84
2021/03/06 11:02:24;;;;;;;7.70;2.80;;;4.30;72.50;;;;;;5031356;28;20029;-84
2021/03/06 11:04:50;;;;;;;6.33;2.73;;;4.30;72.00;;;;;;5032274;28;20047;-85
2021/03/06 11:07:25;;;;;;;6.97;3.37;;;4.40;71.70;;;;;;5032521;28;20018;-84
2021/03/06 11:09:56;;;;;;;6.93;2.63;;;4.40;70.90;;;;;;5030629;28;20022;-85
2021/03/06 11:12:25;;;;;;;5.70;2.97;;;4.40;71.10;;;;;;5032594;28;20079;-84
2021/03/06 11:15:24;;;;;;;9.50;3.40;;;4.50;71.10;;;;;;5032307;28;20119;-85
2021/03/06 11:17:54;;;;;;;8.07;3.33;;;4.50;70.60;;;;;;5031115;28;20029;-85
2021/03/06 11:20:26;;;;;;;8.33;3.67;;;4.50;70.70;;;;;;5047355;28;20483;-85
2021/03/06 11:22:52;;;;;;;7.80;4.17;;;4.50;70.90;;;;;;5031983;28;20029;-85
2021/03/06 11:25:20;;;;;;;10.57;4.07;;;4.60;70.40;;;;;;5031782;28;20026;-85
2021/03/06 11:27:47;;;;;;;6.17;3.40;;;4.50;69.20;;;;;;5032251;28;20482;-85
2021/03/06 11:30:16;;;;;;;11.03;3.90;;;4.60;69.10;;;;;;5031480;28;20033;-85
2021/03/06 11:32:42;;;;;;;11.25;4.22;;;4.60;69.70;;;;;;5033167;28;20025;-84
2021/03/06 11:35:08;;;;;;;9.50;4.23;;;4.60;69.70;;;;;;5033155;28;20079;-84
2021/03/06 11:37:34;;;;;;;5.93;3.90;;;4.60;70.00;;;;;;5031836;28;20026;-84
2021/03/06 11:40:00;;;;;;;10.37;4.80;;;4.60;70.00;;;;;;5031311;28;20044;-84
2021/03/06 11:42:25;;;;;;;9.40;6.50;;;4.60;69.90;;;;;;5032872;28;20378;-85
2021/03/06 11:44:51;;;;;;;10.53;5.70;;;4.70;69.00;;;;;;5033063;28;20026;-85
2021/03/06 11:47:17;;;;;;;9.47;5.77;;;4.70;69.50;;;;;;5031622;28;20026;-85
2021/03/06 11:49:42;;;;;;;12.53;6.27;;;4.70;69.20;;;;;;5031772;28;20057;-86
2021/03/06 11:52:08;;;;;;;11.47;5.93;;;4.70;69.10;;;;;;5032558;28;20025;-85
2021/03/06 11:54:34;;;;;;;9.90;6.00;;;4.80;68.90;;;;;;5032821;28;20379;-85
2021/03/06 11:56:59;;;;;;;11.10;6.60;;;4.80;69.50;;;;;;5032903;28;20057;-85
2021/03/06 11:59:25;;;;;;;9.23;6.30;;;4.80;68.40;;;;;;5032378;28;20029;-85
2021/03/06 12:01:50;;;;;;;8.83;6.00;;;4.80;68.00;;;;;;5031835;28;20026;-85
2021/03/06 12:04:17;;;;;;;8.57;5.47;;;4.80;68.20;;;;;;5032687;28;20032;-84
2021/03/06 12:06:42;;;;;;;8.70;5.60;;;4.80;68.20;;;;;;5035727;28;20025;-85
2021/03/06 12:09:08;;;;;;;11.97;6.47;;;4.80;68.70;;;;;;5035910;28;20052;-83
2021/03/06 12:11:34;;;;;;;11.20;6.53;;;4.90;69.30;;;;;;5035700;28;20545;-85
2021/03/06 12:13:59;;;;;;;10.43;5.70;;;4.90;69.10;;;;;;5036527;28;20029;-84
2021/03/06 12:16:26;;;;;;;11.03;4.73;;;5.00;69.50;;;;;;5040287;28;20107;-85
2021/03/06 12:18:52;;;;;;;10.60;5.07;;;5.00;68.80;;;;;;5042367;28;20033;-85
2021/03/06 12:21:18;;;;;;;7.97;4.70;;;5.00;68.50;;;;;;5041803;28;20028;-86
2021/03/06 12:23:44;;;;;;;8.23;4.10;;;4.90;67.80;;;;;;5040331;28;20033;-85
2021/03/06 12:26:10;;;;;;;7.40;4.43;;;4.90;68.10;;;;;;5040751;28;20029;-85
2021/03/06 12:28:35;;;;;;;7.33;4.37;;;4.90;68.30;;;;;;5041330;28;20025;-85
2021/03/06 12:31:01;;;;;;;11.33;4.63;;;5.00;67.50;;;;;;5039187;28;20079;-85
2021/03/06 12:33:26;;;;;;;7.00;3.90;;;5.00;66.80;;;;;;5039488;28;20017;-85
2021/03/06 12:35:52;;;;;;;8.07;3.60;;;5.00;68.10;;;;;;5038490;28;20026;-85
2021/03/06 12:38:18;;;;;;;6.80;4.00;;;5.00;68.00;;;;;;5037105;28;20018;-85
2021/03/06 12:40:43;;;;;;;11.07;4.53;;;5.00;68.00;;;;;;5036695;28;20037;-85
2021/03/06 12:43:09;;;;;;;10.43;4.63;;;5.10;66.20;;;;;;5038779;28;20531;-84
2021/03/06 12:45:34;;;;;;;10.40;4.37;;;5.20;65.70;;;;;;5035998;28;20041;-86
2021/03/06 12:48:00;;;;;;;8.47;4.07;;;5.20;65.20;;;;;;5036736;28;20028;-85
2021/03/06 12:50:26;;;;;;;8.57;4.03;;;5.20;65.90;;;;;;5038481;28;20116;-86
2021/03/06 12:52:52;;;;;;;6.83;3.63;;;5.20;66.00;;;;;;5040958;28;20022;-84
2021/03/06 12:55:17;;;;;;;6.03;3.27;;;5.20;66.20;;;;;;5039920;28;20033;-84
2021/03/06 12:57:43;;;;;;;5.87;3.13;;;5.20;66.10;;;;;;5038881;28;20026;-85
2021/03/06 13:00:09;;;;;;;8.10;2.70;;;5.20;66.10;;;;;;5038076;28;20057;-85